sensor_id;sensor_type;location;lat;lon;timestamp;P1;durP1;ratioP1;P2;durP2;ratioP2
75820;SDS011;64454;51.984;9.838;2023-10-09T00:01:25;3.22;;;1.52;;
75820;SDS011;64454;51.984;9.838;2023-10-09T00:03:52;3.40;;;1.70;;
75820;SDS011;64454;51.984;9.838;2023-10-09T00:06:19;3.42;;;1.52;;
75820;SDS011;64454;51.984;9.838;2023-10-09T00:08:56;3.47;;;1.85;;
75820;SDS011;64454;51.984;9.838;2023-10-09T00:11:23;4.10;;;1.63;;
75820;SDS011;64454;51.984;9.838;2023-10-09T00:13:55;2.47;;;1.50;;
75820;SDS011;64454;51.984;9.838;2023-10-09T00:16:23;3.05;;;1.70;;
75820;SDS011;64454;51.984;9.838;2023-10-09T00:18:59;3.38;;;1.73;;
75820;SDS011;64454;51.984;9.838;2023-10-09T00:21:39;2.80;;;1.60;;
75820;SDS011;64454;51.984;9.838;2023-10-09T00:24:06;3.00;;;1.70;;
75820;SDS011;64454;51.984;9.838;2023-10-09T00:26:38;2.65;;;1.70;;
75820;SDS011;64454;51.984;9.838;2023-10-09T00:29:11;3.50;;;1.60;;
75820;SDS011;64454;51.984;9.838;2023-10-09T00:31:40;2.25;;;1.30;;
75820;SDS011;64454;51.984;9.838;2023-10-09T00:34:15;3.35;;;1.40;;
75820;SDS011;64454;51.984;9.838;2023-10-09T00:36:44;2.60;;;1.17;;
75820;SDS011;64454;51.984;9.838;2023-10-09T00:39:15;2.28;;;1.27;;
75820;SDS011;64454;51.984;9.838;2023-10-09T00:41:58;2.80;;;1.20;;
75820;SDS011;64454;51.984;9.838;2023-10-09T00:44:26;3.97;;;1.45;;
75820;SDS011;64454;51.984;9.838;2023-10-09T00:47:03;2.80;;;1.55;;
75820;SDS011;64454;51.984;9.838;2023-10-09T00:49:46;1.70;;;1.20;;
75820;SDS011;64454;51.984;9.838;2023-10-09T00:52:24;2.50;;;1.37;;
75820;SDS011;64454;51.984;9.838;2023-10-09T00:54:57;2.83;;;1.23;;
75820;SDS011;64454;51.984;9.838;2023-10-09T00:57:28;2.30;;;1.40;;
75820;SDS011;64454;51.984;9.838;2023-10-09T00:59:59;2.45;;;1.45;;
75820;SDS011;64454;51.984;9.838;2023-10-09T01:02:28;3.20;;;1.60;;
75820;SDS011;64454;51.984;9.838;2023-10-09T01:05:01;3.40;;;1.80;;
75820;SDS011;64454;51.984;9.838;2023-10-09T01:07:45;3.88;;;1.40;;
75820;SDS011;64454;51.984;9.838;2023-10-09T01:10:14;2.10;;;1.40;;
75820;SDS011;64454;51.984;9.838;2023-10-09T01:12:42;3.90;;;1.70;;
75820;SDS011;64454;51.984;9.838;2023-10-09T01:15:10;2.80;;;1.50;;
75820;SDS011;64454;51.984;9.838;2023-10-09T01:17:44;2.78;;;1.30;;
75820;SDS011;64454;51.984;9.838;2023-10-09T01:20:11;4.38;;;2.10;;
75820;SDS011;64454;51.984;9.838;2023-10-09T01:22:41;2.85;;;1.67;;
75820;SDS011;64454;51.984;9.838;2023-10-09T01:25:09;3.05;;;1.60;;
75820;SDS011;64454;51.984;9.838;2023-10-09T01:27:35;3.78;;;2.10;;
75820;SDS011;64454;51.984;9.838;2023-10-09T01:30:05;6.38;;;2.03;;
75820;SDS011;64454;51.984;9.838;2023-10-09T01:32:38;3.60;;;1.70;;
75820;SDS011;64454;51.984;9.838;2023-10-09T01:35:05;4.13;;;1.88;;
75820;SDS011;64454;51.984;9.838;2023-10-09T01:37:44;3.10;;;1.63;;
75820;SDS011;64454;51.984;9.838;2023-10-09T01:40:15;2.90;;;2.00;;
75820;SDS011;64454;51.984;9.838;2023-10-09T01:42:50;3.00;;;1.90;;
75820;SDS011;64454;51.984;9.838;2023-10-09T01:45:16;3.45;;;1.70;;
75820;SDS011;64454;51.984;9.838;2023-10-09T01:47:52;3.22;;;1.80;;
75820;SDS011;64454;51.984;9.838;2023-10-09T01:50:20;3.15;;;1.60;;
75820;SDS011;64454;51.984;9.838;2023-10-09T01:52:52;2.33;;;1.70;;
75820;SDS011;64454;51.984;9.838;2023-10-09T01:55:18;3.50;;;1.80;;
75820;SDS011;64454;51.984;9.838;2023-10-09T01:57:54;5.70;;;1.90;;
75820;SDS011;64454;51.984;9.838;2023-10-09T02:00:23;3.88;;;1.70;;
75820;SDS011;64454;51.984;9.838;2023-10-09T02:02:54;2.47;;;1.58;;
75820;SDS011;64454;51.984;9.838;2023-10-09T02:05:20;3.80;;;1.90;;
75820;SDS011;64454;51.984;9.838;2023-10-09T02:07:51;2.70;;;1.85;;
75820;SDS011;64454;51.984;9.838;2023-10-09T02:10:18;3.78;;;2.08;;
75820;SDS011;64454;51.984;9.838;2023-10-09T02:12:56;3.75;;;2.20;;
75820;SDS011;64454;51.984;9.838;2023-10-09T02:15:25;4.85;;;2.15;;
75820;SDS011;64454;51.984;9.838;2023-10-09T02:18:16;4.72;;;1.90;;
75820;SDS011;64454;51.984;9.838;2023-10-09T02:20:51;4.00;;;1.80;;
75820;SDS011;64454;51.984;9.838;2023-10-09T02:23:21;3.50;;;1.80;;
75820;SDS011;64454;51.984;9.838;2023-10-09T02:25:56;2.85;;;1.75;;
75820;SDS011;64454;51.984;9.838;2023-10-09T02:28:22;3.92;;;1.90;;
75820;SDS011;64454;51.984;9.838;2023-10-09T02:30:48;4.10;;;2.33;;
75820;SDS011;64454;51.984;9.838;2023-10-09T02:33:16;3.65;;;1.90;;
75820;SDS011;64454;51.984;9.838;2023-10-09T02:35:52;3.22;;;1.80;;
75820;SDS011;64454;51.984;9.838;2023-10-09T02:38:19;2.92;;;1.75;;
75820;SDS011;64454;51.984;9.838;2023-10-09T02:40:49;3.60;;;2.20;;
75820;SDS011;64454;51.984;9.838;2023-10-09T02:43:43;3.72;;;1.90;;
75820;SDS011;64454;51.984;9.838;2023-10-09T02:46:10;2.40;;;1.80;;
75820;SDS011;64454;51.984;9.838;2023-10-09T02:48:40;3.50;;;1.80;;
75820;SDS011;64454;51.984;9.838;2023-10-09T02:51:10;3.55;;;2.20;;
75820;SDS011;64454;51.984;9.838;2023-10-09T02:53:46;2.95;;;2.03;;
75820;SDS011;64454;51.984;9.838;2023-10-09T02:56:14;6.13;;;2.20;;
75820;SDS011;64454;51.984;9.838;2023-10-09T02:58:43;5.00;;;2.17;;
75820;SDS011;64454;51.984;9.838;2023-10-09T03:01:13;3.97;;;2.05;;
75820;SDS011;64454;51.984;9.838;2023-10-09T03:03:39;5.53;;;2.53;;
75820;SDS011;64454;51.984;9.838;2023-10-09T03:06:10;5.00;;;2.30;;
75820;SDS011;64454;51.984;9.838;2023-10-09T03:08:37;3.25;;;2.13;;
75820;SDS011;64454;51.984;9.838;2023-10-09T03:11:06;3.97;;;2.20;;
75820;SDS011;64454;51.984;9.838;2023-10-09T03:13:38;4.50;;;2.25;;
75820;SDS011;64454;51.984;9.838;2023-10-09T03:16:10;3.90;;;2.33;;
75820;SDS011;64454;51.984;9.838;2023-10-09T03:18:41;5.72;;;2.70;;
75820;SDS011;64454;51.984;9.838;2023-10-09T03:21:07;3.75;;;2.50;;
75820;SDS011;64454;51.984;9.838;2023-10-09T03:23:33;6.93;;;2.28;;
75820;SDS011;64454;51.984;9.838;2023-10-09T03:26:00;3.85;;;2.25;;
75820;SDS011;64454;51.984;9.838;2023-10-09T03:28:26;4.45;;;2.42;;
75820;SDS011;64454;51.984;9.838;2023-10-09T03:30:52;4.50;;;3.00;;
75820;SDS011;64454;51.984;9.838;2023-10-09T03:33:19;5.13;;;2.75;;
75820;SDS011;64454;51.984;9.838;2023-10-09T03:35:45;3.40;;;2.50;;
75820;SDS011;64454;51.984;9.838;2023-10-09T03:38:11;5.03;;;2.40;;
75820;SDS011;64454;51.984;9.838;2023-10-09T03:40:40;5.85;;;2.20;;
75820;SDS011;64454;51.984;9.838;2023-10-09T03:43:07;6.50;;;2.63;;
75820;SDS011;64454;51.984;9.838;2023-10-09T03:45:35;5.82;;;2.83;;
75820;SDS011;64454;51.984;9.838;2023-10-09T03:48:03;4.20;;;2.30;;
75820;SDS011;64454;51.984;9.838;2023-10-09T03:50:37;3.50;;;2.20;;
75820;SDS011;64454;51.984;9.838;2023-10-09T03:53:04;3.67;;;2.20;;
75820;SDS011;64454;51.984;9.838;2023-10-09T03:55:34;3.80;;;2.40;;
75820;SDS011;64454;51.984;9.838;2023-10-09T03:58:03;3.33;;;2.58;;
75820;SDS011;64454;51.984;9.838;2023-10-09T04:00:29;5.30;;;2.40;;
75820;SDS011;64454;51.984;9.838;2023-10-09T04:02:58;3.88;;;2.55;;
75820;SDS011;64454;51.984;9.838;2023-10-09T04:05:25;4.93;;;2.90;;
75820;SDS011;64454;51.984;9.838;2023-10-09T04:07:54;4.78;;;2.60;;
75820;SDS011;64454;51.984;9.838;2023-10-09T04:10:23;4.85;;;3.25;;
75820;SDS011;64454;51.984;9.838;2023-10-09T04:13:08;5.27;;;2.90;;
75820;SDS011;64454;51.984;9.838;2023-10-09T04:15:36;5.73;;;3.03;;
75820;SDS011;64454;51.984;9.838;2023-10-09T04:18:07;8.15;;;3.22;;
75820;SDS011;64454;51.984;9.838;2023-10-09T04:20:40;8.23;;;4.57;;
75820;SDS011;64454;51.984;9.838;2023-10-09T04:23:30;6.47;;;3.88;;
75820;SDS011;64454;51.984;9.838;2023-10-09T04:26:01;7.53;;;4.32;;
75820;SDS011;64454;51.984;9.838;2023-10-09T04:28:35;7.60;;;3.80;;
75820;SDS011;64454;51.984;9.838;2023-10-09T04:31:02;8.27;;;4.65;;
75820;SDS011;64454;51.984;9.838;2023-10-09T04:33:31;6.75;;;3.80;;
75820;SDS011;64454;51.984;9.838;2023-10-09T04:36:07;7.03;;;3.97;;
75820;SDS011;64454;51.984;9.838;2023-10-09T04:38:42;6.03;;;4.50;;
75820;SDS011;64454;51.984;9.838;2023-10-09T04:41:20;7.13;;;4.28;;
75820;SDS011;64454;51.984;9.838;2023-10-09T04:43:52;9.07;;;5.00;;
75820;SDS011;64454;51.984;9.838;2023-10-09T04:46:28;8.93;;;4.90;;
75820;SDS011;64454;51.984;9.838;2023-10-09T04:48:56;8.60;;;5.20;;
75820;SDS011;64454;51.984;9.838;2023-10-09T04:51:40;8.10;;;4.60;;
75820;SDS011;64454;51.984;9.838;2023-10-09T04:54:24;6.97;;;4.20;;
75820;SDS011;64454;51.984;9.838;2023-10-09T04:57:04;7.35;;;5.00;;
75820;SDS011;64454;51.984;9.838;2023-10-09T04:59:42;8.48;;;4.95;;
75820;SDS011;64454;51.984;9.838;2023-10-09T05:02:13;7.82;;;4.40;;
75820;SDS011;64454;51.984;9.838;2023-10-09T05:04:44;7.13;;;4.63;;
75820;SDS011;64454;51.984;9.838;2023-10-09T05:07:13;6.93;;;4.40;;
75820;SDS011;64454;51.984;9.838;2023-10-09T05:09:49;9.07;;;4.35;;
75820;SDS011;64454;51.984;9.838;2023-10-09T05:12:31;4.68;;;3.63;;
75820;SDS011;64454;51.984;9.838;2023-10-09T05:14:57;6.70;;;4.13;;
75820;SDS011;64454;51.984;9.838;2023-10-09T05:17:33;8.03;;;4.53;;
75820;SDS011;64454;51.984;9.838;2023-10-09T05:20:01;7.80;;;4.50;;
75820;SDS011;64454;51.984;9.838;2023-10-09T05:22:46;9.10;;;5.18;;
75820;SDS011;64454;51.984;9.838;2023-10-09T05:25:24;8.57;;;4.85;;
75820;SDS011;64454;51.984;9.838;2023-10-09T05:28:06;9.20;;;5.10;;
75820;SDS011;64454;51.984;9.838;2023-10-09T05:30:47;7.63;;;5.05;;
75820;SDS011;64454;51.984;9.838;2023-10-09T05:33:20;9.07;;;5.53;;
75820;SDS011;64454;51.984;9.838;2023-10-09T05:35:58;7.35;;;4.90;;
75820;SDS011;64454;51.984;9.838;2023-10-09T05:38:41;9.20;;;5.57;;
75820;SDS011;64454;51.984;9.838;2023-10-09T05:41:12;7.90;;;5.07;;
75820;SDS011;64454;51.984;9.838;2023-10-09T05:44:10;6.85;;;4.20;;
75820;SDS011;64454;51.984;9.838;2023-10-09T05:46:55;8.38;;;5.25;;
75820;SDS011;64454;51.984;9.838;2023-10-09T05:49:47;10.05;;;5.82;;
75820;SDS011;64454;51.984;9.838;2023-10-09T05:52:43;8.65;;;5.03;;
75820;SDS011;64454;51.984;9.838;2023-10-09T05:55:28;8.98;;;6.10;;
75820;SDS011;64454;51.984;9.838;2023-10-09T05:58:29;9.10;;;6.18;;
75820;SDS011;64454;51.984;9.838;2023-10-09T06:01:27;10.30;;;6.80;;
75820;SDS011;64454;51.984;9.838;2023-10-09T06:04:08;9.40;;;6.13;;
75820;SDS011;64454;51.984;9.838;2023-10-09T06:06:40;12.77;;;6.07;;
75820;SDS011;64454;51.984;9.838;2023-10-09T06:09:10;10.95;;;7.10;;
75820;SDS011;64454;51.984;9.838;2023-10-09T06:11:56;12.48;;;7.68;;
75820;SDS011;64454;51.984;9.838;2023-10-09T06:14:37;12.88;;;7.63;;
75820;SDS011;64454;51.984;9.838;2023-10-09T06:17:23;14.85;;;8.18;;
75820;SDS011;64454;51.984;9.838;2023-10-09T06:19:56;12.03;;;8.33;;
75820;SDS011;64454;51.984;9.838;2023-10-09T06:22:45;11.70;;;7.78;;
75820;SDS011;64454;51.984;9.838;2023-10-09T06:25:24;16.08;;;7.55;;
75820;SDS011;64454;51.984;9.838;2023-10-09T06:27:57;14.15;;;8.75;;
75820;SDS011;64454;51.984;9.838;2023-10-09T06:30:24;10.85;;;7.95;;
75820;SDS011;64454;51.984;9.838;2023-10-09T06:32:52;12.07;;;7.60;;
75820;SDS011;64454;51.984;9.838;2023-10-09T06:35:23;13.13;;;7.68;;
75820;SDS011;64454;51.984;9.838;2023-10-09T06:37:56;13.23;;;9.15;;
75820;SDS011;64454;51.984;9.838;2023-10-09T06:40:46;12.53;;;7.73;;
75820;SDS011;64454;51.984;9.838;2023-10-09T06:43:32;14.40;;;7.90;;
75820;SDS011;64454;51.984;9.838;2023-10-09T06:46:02;14.20;;;8.80;;
75820;SDS011;64454;51.984;9.838;2023-10-09T06:49:01;16.43;;;9.00;;
75820;SDS011;64454;51.984;9.838;2023-10-09T06:51:54;11.45;;;8.27;;
75820;SDS011;64454;51.984;9.838;2023-10-09T06:54:38;10.88;;;7.47;;
75820;SDS011;64454;51.984;9.838;2023-10-09T06:57:14;14.40;;;8.82;;
75820;SDS011;64454;51.984;9.838;2023-10-09T07:00:02;13.85;;;8.73;;
75820;SDS011;64454;51.984;9.838;2023-10-09T07:02:48;14.23;;;8.98;;
75820;SDS011;64454;51.984;9.838;2023-10-09T07:05:14;14.43;;;9.50;;
75820;SDS011;64454;51.984;9.838;2023-10-09T07:07:43;15.73;;;9.52;;
75820;SDS011;64454;51.984;9.838;2023-10-09T07:10:20;16.73;;;9.80;;
75820;SDS011;64454;51.984;9.838;2023-10-09T07:12:58;16.30;;;10.10;;
75820;SDS011;64454;51.984;9.838;2023-10-09T07:15:27;14.35;;;9.55;;
75820;SDS011;64454;51.984;9.838;2023-10-09T07:18:12;14.97;;;9.50;;
75820;SDS011;64454;51.984;9.838;2023-10-09T07:20:45;17.92;;;10.88;;
75820;SDS011;64454;51.984;9.838;2023-10-09T07:23:24;17.50;;;10.60;;
75820;SDS011;64454;51.984;9.838;2023-10-09T07:26:01;17.13;;;11.07;;
75820;SDS011;64454;51.984;9.838;2023-10-09T07:28:43;18.67;;;11.90;;
75820;SDS011;64454;51.984;9.838;2023-10-09T07:31:16;17.25;;;11.48;;
75820;SDS011;64454;51.984;9.838;2023-10-09T07:33:51;20.08;;;12.77;;
75820;SDS011;64454;51.984;9.838;2023-10-09T07:36:21;19.63;;;12.57;;
75820;SDS011;64454;51.984;9.838;2023-10-09T07:39:02;20.55;;;12.20;;
75820;SDS011;64454;51.984;9.838;2023-10-09T07:41:39;17.05;;;12.48;;
75820;SDS011;64454;51.984;9.838;2023-10-09T07:44:10;17.23;;;12.57;;
75820;SDS011;64454;51.984;9.838;2023-10-09T07:47:00;19.23;;;12.65;;
75820;SDS011;64454;51.984;9.838;2023-10-09T07:49:44;24.27;;;13.82;;
75820;SDS011;64454;51.984;9.838;2023-10-09T07:52:18;21.30;;;13.90;;
75820;SDS011;64454;51.984;9.838;2023-10-09T07:54:47;18.75;;;13.32;;
75820;SDS011;64454;51.984;9.838;2023-10-09T07:57:27;21.15;;;14.30;;
75820;SDS011;64454;51.984;9.838;2023-10-09T08:00:04;20.80;;;14.02;;
75820;SDS011;64454;51.984;9.838;2023-10-09T08:02:46;20.30;;;13.60;;
75820;SDS011;64454;51.984;9.838;2023-10-09T08:05:13;20.30;;;13.85;;
75820;SDS011;64454;51.984;9.838;2023-10-09T08:07:45;20.42;;;14.32;;
75820;SDS011;64454;51.984;9.838;2023-10-09T08:10:20;18.30;;;14.00;;
75820;SDS011;64454;51.984;9.838;2023-10-09T08:13:04;24.20;;;14.93;;
75820;SDS011;64454;51.984;9.838;2023-10-09T08:16:05;21.80;;;14.60;;
75820;SDS011;64454;51.984;9.838;2023-10-09T08:18:42;23.50;;;15.30;;
75820;SDS011;64454;51.984;9.838;2023-10-09T08:21:10;19.35;;;13.63;;
75820;SDS011;64454;51.984;9.838;2023-10-09T08:24:04;22.10;;;15.00;;
75820;SDS011;64454;51.984;9.838;2023-10-09T08:26:51;18.65;;;12.38;;
75820;SDS011;64454;51.984;9.838;2023-10-09T08:29:37;20.23;;;13.13;;
75820;SDS011;64454;51.984;9.838;2023-10-09T08:32:03;19.13;;;13.80;;
75820;SDS011;64454;51.984;9.838;2023-10-09T08:34:43;25.55;;;13.70;;
75820;SDS011;64454;51.984;9.838;2023-10-09T08:37:19;18.97;;;12.80;;
75820;SDS011;64454;51.984;9.838;2023-10-09T08:39:50;22.52;;;14.60;;
75820;SDS011;64454;51.984;9.838;2023-10-09T08:42:16;20.40;;;13.70;;
75820;SDS011;64454;51.984;9.838;2023-10-09T08:44:44;22.75;;;15.02;;
75820;SDS011;64454;51.984;9.838;2023-10-09T08:47:14;21.00;;;13.90;;
75820;SDS011;64454;51.984;9.838;2023-10-09T08:49:40;21.58;;;13.48;;
75820;SDS011;64454;51.984;9.838;2023-10-09T08:52:07;19.73;;;14.50;;
75820;SDS011;64454;51.984;9.838;2023-10-09T08:54:36;19.65;;;13.50;;
75820;SDS011;64454;51.984;9.838;2023-10-09T08:57:02;17.85;;;13.10;;
75820;SDS011;64454;51.984;9.838;2023-10-09T08:59:29;17.88;;;12.55;;
75820;SDS011;64454;51.984;9.838;2023-10-09T09:01:57;17.65;;;13.00;;
75820;SDS011;64454;51.984;9.838;2023-10-09T09:04:33;19.90;;;13.98;;
75820;SDS011;64454;51.984;9.838;2023-10-09T09:07:01;14.35;;;11.13;;
75820;SDS011;64454;51.984;9.838;2023-10-09T09:09:29;15.70;;;12.07;;
75820;SDS011;64454;51.984;9.838;2023-10-09T09:11:58;18.92;;;13.35;;
75820;SDS011;64454;51.984;9.838;2023-10-09T09:14:35;21.67;;;15.00;;
75820;SDS011;64454;51.984;9.838;2023-10-09T09:17:02;18.67;;;13.73;;
75820;SDS011;64454;51.984;9.838;2023-10-09T09:19:30;20.70;;;14.95;;
75820;SDS011;64454;51.984;9.838;2023-10-09T09:21:58;18.58;;;13.82;;
75820;SDS011;64454;51.984;9.838;2023-10-09T09:24:24;18.27;;;13.82;;
75820;SDS011;64454;51.984;9.838;2023-10-09T09:26:56;18.40;;;13.18;;
75820;SDS011;64454;51.984;9.838;2023-10-09T09:29:38;18.80;;;13.60;;
75820;SDS011;64454;51.984;9.838;2023-10-09T09:32:07;16.88;;;14.02;;
75820;SDS011;64454;51.984;9.838;2023-10-09T09:34:45;18.10;;;13.93;;
75820;SDS011;64454;51.984;9.838;2023-10-09T09:37:18;16.13;;;12.70;;
75820;SDS011;64454;51.984;9.838;2023-10-09T09:39:45;17.63;;;13.60;;
75820;SDS011;64454;51.984;9.838;2023-10-09T09:42:18;19.02;;;12.60;;
75820;SDS011;64454;51.984;9.838;2023-10-09T09:44:50;19.70;;;13.80;;
75820;SDS011;64454;51.984;9.838;2023-10-09T09:47:17;17.70;;;13.65;;
75820;SDS011;64454;51.984;9.838;2023-10-09T09:49:50;18.27;;;13.05;;
75820;SDS011;64454;51.984;9.838;2023-10-09T09:52:18;15.48;;;13.05;;
75820;SDS011;64454;51.984;9.838;2023-10-09T09:54:44;18.90;;;13.70;;
75820;SDS011;64454;51.984;9.838;2023-10-09T09:57:14;18.00;;;13.57;;
75820;SDS011;64454;51.984;9.838;2023-10-09T09:59:51;19.40;;;14.70;;
75820;SDS011;64454;51.984;9.838;2023-10-09T10:02:21;17.40;;;14.32;;
75820;SDS011;64454;51.984;9.838;2023-10-09T10:04:55;20.83;;;15.05;;
75820;SDS011;64454;51.984;9.838;2023-10-09T10:07:28;17.10;;;14.48;;
75820;SDS011;64454;51.984;9.838;2023-10-09T10:13:03;17.45;;;14.32;;
75820;SDS011;64454;51.984;9.838;2023-10-09T10:18:54;15.38;;;12.20;;
75820;SDS011;64454;51.984;9.838;2023-10-09T10:21:25;14.75;;;13.00;;
75820;SDS011;64454;51.984;9.838;2023-10-09T10:24:18;16.90;;;13.10;;
75820;SDS011;64454;51.984;9.838;2023-10-09T10:27:17;18.80;;;15.10;;
75820;SDS011;64454;51.984;9.838;2023-10-09T10:29:52;17.15;;;15.35;;
75820;SDS011;64454;51.984;9.838;2023-10-09T10:32:56;16.63;;;13.60;;
75820;SDS011;64454;51.984;9.838;2023-10-09T10:35:34;16.48;;;12.70;;
75820;SDS011;64454;51.984;9.838;2023-10-09T10:41:09;15.50;;;13.18;;
75820;SDS011;64454;51.984;9.838;2023-10-09T10:43:43;16.08;;;13.07;;
75820;SDS011;64454;51.984;9.838;2023-10-09T10:46:13;15.32;;;12.55;;
75820;SDS011;64454;51.984;9.838;2023-10-09T10:48:40;15.17;;;12.07;;
75820;SDS011;64454;51.984;9.838;2023-10-09T10:51:12;14.82;;;12.43;;
75820;SDS011;64454;51.984;9.838;2023-10-09T10:53:49;16.77;;;11.95;;
75820;SDS011;64454;51.984;9.838;2023-10-09T10:56:18;16.88;;;12.90;;
75820;SDS011;64454;51.984;9.838;2023-10-09T10:58:51;17.35;;;12.70;;
75820;SDS011;64454;51.984;9.838;2023-10-09T11:01:37;12.50;;;10.95;;
75820;SDS011;64454;51.984;9.838;2023-10-09T11:04:18;14.57;;;12.60;;
75820;SDS011;64454;51.984;9.838;2023-10-09T11:07:06;14.90;;;12.23;;
75820;SDS011;64454;51.984;9.838;2023-10-09T11:09:42;14.90;;;11.63;;
75820;SDS011;64454;51.984;9.838;2023-10-09T11:12:23;16.10;;;11.55;;
75820;SDS011;64454;51.984;9.838;2023-10-09T11:15:03;14.32;;;12.35;;
75820;SDS011;64454;51.984;9.838;2023-10-09T11:17:32;14.40;;;12.90;;
75820;SDS011;64454;51.984;9.838;2023-10-09T11:20:00;17.20;;;13.40;;
75820;SDS011;64454;51.984;9.838;2023-10-09T11:22:48;16.13;;;12.50;;
75820;SDS011;64454;51.984;9.838;2023-10-09T11:25:40;16.30;;;12.48;;
75820;SDS011;64454;51.984;9.838;2023-10-09T11:28:16;15.88;;;12.93;;
75820;SDS011;64454;51.984;9.838;2023-10-09T11:31:08;14.20;;;12.70;;
75820;SDS011;64454;51.984;9.838;2023-10-09T11:33:43;11.63;;;9.65;;
75820;SDS011;64454;51.984;9.838;2023-10-09T11:36:10;16.10;;;13.02;;
75820;SDS011;64454;51.984;9.838;2023-10-09T11:38:36;19.73;;;14.88;;
75820;SDS011;64454;51.984;9.838;2023-10-09T11:41:11;22.50;;;16.15;;
75820;SDS011;64454;51.984;9.838;2023-10-09T11:43:47;18.25;;;15.52;;
75820;SDS011;64454;51.984;9.838;2023-10-09T11:46:19;15.98;;;14.10;;
75820;SDS011;64454;51.984;9.838;2023-10-09T11:49:14;19.45;;;14.60;;
75820;SDS011;64454;51.984;9.838;2023-10-09T11:52:04;16.58;;;13.63;;
75820;SDS011;64454;51.984;9.838;2023-10-09T11:54:46;18.25;;;14.30;;
75820;SDS011;64454;51.984;9.838;2023-10-09T11:57:14;18.95;;;14.48;;
75820;SDS011;64454;51.984;9.838;2023-10-09T11:59:42;20.00;;;14.30;;
75820;SDS011;64454;51.984;9.838;2023-10-09T12:02:08;15.85;;;13.70;;
75820;SDS011;64454;51.984;9.838;2023-10-09T12:04:37;16.63;;;13.27;;
75820;SDS011;64454;51.984;9.838;2023-10-09T12:07:07;17.65;;;13.45;;
75820;SDS011;64454;51.984;9.838;2023-10-09T12:09:34;14.77;;;11.75;;
75820;SDS011;64454;51.984;9.838;2023-10-09T12:12:02;13.50;;;11.90;;
75820;SDS011;64454;51.984;9.838;2023-10-09T12:14:29;12.50;;;10.30;;
75820;SDS011;64454;51.984;9.838;2023-10-09T12:16:58;13.20;;;10.73;;
75820;SDS011;64454;51.984;9.838;2023-10-09T12:19:30;12.75;;;10.45;;
75820;SDS011;64454;51.984;9.838;2023-10-09T12:21:59;13.15;;;10.65;;
75820;SDS011;64454;51.984;9.838;2023-10-09T12:24:26;12.70;;;10.63;;
75820;SDS011;64454;51.984;9.838;2023-10-09T12:26:54;14.85;;;11.02;;
75820;SDS011;64454;51.984;9.838;2023-10-09T12:29:21;12.13;;;10.30;;
75820;SDS011;64454;51.984;9.838;2023-10-09T12:31:48;13.07;;;10.77;;
75820;SDS011;64454;51.984;9.838;2023-10-09T12:34:23;13.65;;;10.68;;
75820;SDS011;64454;51.984;9.838;2023-10-09T12:36:51;14.93;;;11.38;;
75820;SDS011;64454;51.984;9.838;2023-10-09T12:39:18;12.98;;;11.27;;
75820;SDS011;64454;51.984;9.838;2023-10-09T12:41:45;13.23;;;11.63;;
75820;SDS011;64454;51.984;9.838;2023-10-09T12:44:11;12.02;;;10.75;;
75820;SDS011;64454;51.984;9.838;2023-10-09T12:46:40;11.20;;;10.10;;
75820;SDS011;64454;51.984;9.838;2023-10-09T12:49:06;13.93;;;10.85;;
75820;SDS011;64454;51.984;9.838;2023-10-09T12:51:32;12.57;;;10.13;;
75820;SDS011;64454;51.984;9.838;2023-10-09T12:53:58;12.25;;;9.95;;
75820;SDS011;64454;51.984;9.838;2023-10-09T12:56:27;12.20;;;9.90;;
75820;SDS011;64454;51.984;9.838;2023-10-09T12:58:57;13.05;;;10.55;;
75820;SDS011;64454;51.984;9.838;2023-10-09T13:01:25;11.07;;;9.88;;
75820;SDS011;64454;51.984;9.838;2023-10-09T13:03:57;12.73;;;9.80;;
75820;SDS011;64454;51.984;9.838;2023-10-09T13:06:24;11.18;;;9.30;;
75820;SDS011;64454;51.984;9.838;2023-10-09T13:08:51;10.60;;;9.50;;
75820;SDS011;64454;51.984;9.838;2023-10-09T13:11:17;11.57;;;10.07;;
75820;SDS011;64454;51.984;9.838;2023-10-09T13:13:45;12.45;;;9.55;;
75820;SDS011;64454;51.984;9.838;2023-10-09T13:16:13;12.85;;;9.20;;
75820;SDS011;64454;51.984;9.838;2023-10-09T13:18:48;11.00;;;9.07;;
75820;SDS011;64454;51.984;9.838;2023-10-09T13:21:18;10.75;;;9.52;;
75820;SDS011;64454;51.984;9.838;2023-10-09T13:23:45;9.73;;;8.52;;
75820;SDS011;64454;51.984;9.838;2023-10-09T13:26:12;10.40;;;9.25;;
75820;SDS011;64454;51.984;9.838;2023-10-09T13:28:49;13.90;;;9.80;;
75820;SDS011;64454;51.984;9.838;2023-10-09T13:31:18;11.30;;;10.18;;
75820;SDS011;64454;51.984;9.838;2023-10-09T13:33:46;10.35;;;9.30;;
75820;SDS011;64454;51.984;9.838;2023-10-09T13:36:13;9.93;;;8.93;;
75820;SDS011;64454;51.984;9.838;2023-10-09T13:38:51;9.73;;;8.73;;
75820;SDS011;64454;51.984;9.838;2023-10-09T13:41:19;11.40;;;9.30;;
75820;SDS011;64454;51.984;9.838;2023-10-09T13:43:46;9.60;;;8.60;;
75820;SDS011;64454;51.984;9.838;2023-10-09T13:46:17;11.52;;;9.07;;
75820;SDS011;64454;51.984;9.838;2023-10-09T13:48:43;9.73;;;8.73;;
75820;SDS011;64454;51.984;9.838;2023-10-09T13:51:11;10.85;;;8.98;;
75820;SDS011;64454;51.984;9.838;2023-10-09T13:53:42;10.60;;;9.10;;
75820;SDS011;64454;51.984;9.838;2023-10-09T13:56:12;12.10;;;10.00;;
75820;SDS011;64454;51.984;9.838;2023-10-09T13:58:43;12.00;;;9.88;;
75820;SDS011;64454;51.984;9.838;2023-10-09T14:01:10;11.88;;;10.57;;
75820;SDS011;64454;51.984;9.838;2023-10-09T14:03:45;12.35;;;10.63;;
75820;SDS011;64454;51.984;9.838;2023-10-09T14:06:15;12.05;;;10.57;;
75820;SDS011;64454;51.984;9.838;2023-10-09T14:08:44;11.73;;;10.02;;
75820;SDS011;64454;51.984;9.838;2023-10-09T14:11:11;12.20;;;10.90;;
75820;SDS011;64454;51.984;9.838;2023-10-09T14:13:38;13.07;;;11.27;;
75820;SDS011;64454;51.984;9.838;2023-10-09T14:16:05;12.68;;;10.88;;
75820;SDS011;64454;51.984;9.838;2023-10-09T14:18:32;12.98;;;10.70;;
75820;SDS011;64454;51.984;9.838;2023-10-09T14:21:01;13.93;;;11.60;;
75820;SDS011;64454;51.984;9.838;2023-10-09T14:23:29;13.00;;;11.70;;
75820;SDS011;64454;51.984;9.838;2023-10-09T14:25:59;13.70;;;11.33;;
75820;SDS011;64454;51.984;9.838;2023-10-09T14:28:27;13.10;;;11.70;;
75820;SDS011;64454;51.984;9.838;2023-10-09T14:30:54;13.00;;;11.48;;
75820;SDS011;64454;51.984;9.838;2023-10-09T14:33:24;12.65;;;11.35;;
75820;SDS011;64454;51.984;9.838;2023-10-09T14:35:54;13.68;;;11.40;;
75820;SDS011;64454;51.984;9.838;2023-10-09T14:38:21;13.30;;;11.90;;
75820;SDS011;64454;51.984;9.838;2023-10-09T14:40:52;13.90;;;11.73;;
75820;SDS011;64454;51.984;9.838;2023-10-09T14:43:22;12.32;;;11.13;;
75820;SDS011;64454;51.984;9.838;2023-10-09T14:45:53;14.20;;;12.10;;
75820;SDS011;64454;51.984;9.838;2023-10-09T14:48:20;15.55;;;12.30;;
75820;SDS011;64454;51.984;9.838;2023-10-09T14:50:51;13.60;;;11.20;;
75820;SDS011;64454;51.984;9.838;2023-10-09T14:53:18;14.20;;;12.27;;
75820;SDS011;64454;51.984;9.838;2023-10-09T14:55:45;12.70;;;11.40;;
75820;SDS011;64454;51.984;9.838;2023-10-09T14:58:12;15.82;;;13.10;;
75820;SDS011;64454;51.984;9.838;2023-10-09T15:00:39;15.70;;;13.07;;
75820;SDS011;64454;51.984;9.838;2023-10-09T15:03:12;14.93;;;12.80;;
75820;SDS011;64454;51.984;9.838;2023-10-09T15:05:40;15.50;;;13.77;;
75820;SDS011;64454;51.984;9.838;2023-10-09T15:08:07;20.33;;;14.90;;
75820;SDS011;64454;51.984;9.838;2023-10-09T15:10:36;18.60;;;16.60;;
75820;SDS011;64454;51.984;9.838;2023-10-09T15:13:11;18.35;;;15.02;;
75820;SDS011;64454;51.984;9.838;2023-10-09T15:15:39;17.55;;;13.63;;
75820;SDS011;64454;51.984;9.838;2023-10-09T15:18:07;16.98;;;14.32;;